Evanston, WY (82930)

6:30 PM MDT on August 27, 2014 (GMT -0600)
Evanston-Uinta County Burns | Change Station
CLOSE
Current Station
Airport
Location: Evanston,
Elevation: 7142 ft
Nearby Weather Stations

Elev 7142 ft 41.27 °N, 111.03 °W | Updated 37 minutes ago

Mostly Cloudy
Mostly Cloudy
56 °F
Feels Like 56 °F
N
7
Wind Variable Wind from West

Today
High -- | Low -- °F
--% Chance of Precip.
Yesterday
High -- | Low -- °F
Precip. -- in
6:45 AM 8:04 PM
Waxing Crescent, 5% visible
Pressure 30.15 in
Visibility 10.0 miles
Clouds Mostly Cloudy 11000 ft
Dew Point 44 °F
Humidity 64%
Rainfall 0.00 in
Snow Depth Not available.
UV 1 out of 12
Pollen 7.40 out of 12
Air Quality Not available.
Flu Activity Not available.
METAR KEVW 272353Z AUTO 28006KT 10SM BKN110 13/07 A3033 RMK AO2 LTG DSNT NE AND SW SLP208 60000 T01330067 10156 20117 56002

More Conditions Fewer Conditions

Pressure 30.15 in
Visibility 10.0 miles
Clouds Mostly Cloudy 11000 ft
Dew Point 44 °F
Humidity 64%
Rainfall 0.00 in
Snow Depth Not available.
UV 1 out of 12
Pollen 7.40 out of 12
Air Quality Not available.
Flu Activity Not available.
METAR KEVW 272353Z AUTO 28006KT 10SM BKN110 13/07 A3033 RMK AO2 LTG DSNT NE AND SW SLP208 60000 T01330067 10156 20117 56002

More Conditions Fewer Conditions

Nowcast | as of 5:55 PM MDT on August 27, 2014

Scattered showers and isolated thunderstorms will continue to develop over portions of northern Utah and southwest Wyoming this afternoon. The strongest storms at 550 PM were located just northeast of Henefer. Brief heavy rain...gusty winds...cloud to ground lightning and small hail are possible with some of these storms.

×

10-Day Weather Forecast

Almanac

Astronomy

Aug. 27, 2014 Rise Set
Actual Time 6:45 AM MDT 8:04 PM MDT
Civil Twilight 6:16 AM MDT 8:32 PM MDT
Nautical Twilight 5:42 AM MDT 9:07 PM MDT
Astronomical Twilight 5:05 AM MDT 9:43 PM MDT
Moon 8:46 AM MDT (8/27) 8:56 PM MDT (8/27)
Length of Visible Light 14h 16m
Length of Day
13h 19m
Tomorrow will be 2m 37s shorter.
Waxing Crescent, 5% of the Moon is Illuminated
Today
Waxing Crescent
Sep 2
First Quarter
Sep 8
Full
Sep 15
Last Quarter
Sep 24
New

Today's Extremes

State Highs State Lows

Community

WunderPhotos

Upload Photos

1,747,836 photos uploaded!

Nearby

Snow Depth

Station Depth Elevation
Hams Fork 0 in 7840 ft
Salt River Summit 0 in 7600 ft
Willow Creek 4 in 8450 ft
Blind Bull Summit 1 in 8900 ft
Big Sandy Opening 0 in 9080 ft

Earthquake Activity

City Distance Mag. Time & Date
No recent earthquake activity has been reported nearby.
Minimum magnitude displayed is 2.5.

Coastal Water Temperatures

Place Temperature
No Stations Reporting

Nearby Weather Stations